sensor_id;sensor_type;location;lat;lon;timestamp;pressure;altitude;pressure_sealevel;temperature;humidity
45525;BME280;31437;58.350;13.828;2023-04-09T00:00:23;101178.59;;;0.67;100.00
45525;BME280;31437;58.350;13.828;2023-04-09T00:02:49;101177.72;;;0.58;100.00
45525;BME280;31437;58.350;13.828;2023-04-09T00:05:14;101178.56;;;0.48;100.00
45525;BME280;31437;58.350;13.828;2023-04-09T00:07:39;101174.22;;;0.37;100.00
45525;BME280;31437;58.350;13.828;2023-04-09T00:10:05;101172.47;;;0.30;100.00
45525;BME280;31437;58.350;13.828;2023-04-09T00:12:31;101171.56;;;0.23;100.00
45525;BME280;31437;58.350;13.828;2023-04-09T00:14:56;101173.31;;;0.21;100.00
45525;BME280;31437;58.350;13.828;2023-04-09T00:17:21;101175.88;;;0.18;100.00
45525;BME280;31437;58.350;13.828;2023-04-09T00:19:47;101177.53;;;0.12;100.00
45525;BME280;31437;58.350;13.828;2023-04-09T00:22:12;101174.09;;;0.04;100.00
45525;BME280;31437;58.350;13.828;2023-04-09T00:24:37;101174.91;;;-0.05;100.00
45525;BME280;31437;58.350;13.828;2023-04-09T00:27:03;101176.56;;;-0.13;100.00
45525;BME280;31437;58.350;13.828;2023-04-09T00:29:28;101173.97;;;-0.16;100.00
45525;BME280;31437;58.350;13.828;2023-04-09T00:31:53;101171.38;;;-0.19;100.00
45525;BME280;31437;58.350;13.828;2023-04-09T00:34:19;101172.25;;;-0.16;100.00
45525;BME280;31437;58.350;13.828;2023-04-09T00:36:44;101172.28;;;-0.14;100.00
45525;BME280;31437;58.350;13.828;2023-04-09T00:39:09;101170.53;;;-0.15;100.00
45525;BME280;31437;58.350;13.828;2023-04-09T00:41:35;101178.31;;;-0.14;100.00
45525;BME280;31437;58.350;13.828;2023-04-09T00:44:00;101177.44;;;-0.13;100.00
45525;BME280;31437;58.350;13.828;2023-04-09T00:46:25;101179.97;;;-0.19;100.00
45525;BME280;31437;58.350;13.828;2023-04-09T00:48:51;101179.94;;;-0.25;100.00
45525;BME280;31437;58.350;13.828;2023-04-09T00:51:16;101173.03;;;-0.31;100.00
45525;BME280;31437;58.350;13.828;2023-04-09T00:53:42;101179.03;;;-0.36;100.00
45525;BME280;31437;58.350;13.828;2023-04-09T00:56:08;101174.69;;;-0.43;100.00
45525;BME280;31437;58.350;13.828;2023-04-09T00:58:34;101176.38;;;-0.49;100.00
45525;BME280;31437;58.350;13.828;2023-04-09T01:01:00;101174.59;;;-0.54;100.00
45525;BME280;31437;58.350;13.828;2023-04-09T01:03:25;101178.84;;;-0.61;100.00
45525;BME280;31437;58.350;13.828;2023-04-09T01:05:59;101162.50;;;-0.67;100.00
45525;BME280;31437;58.350;13.828;2023-04-09T01:11:23;101177.81;;;-0.83;100.00
45525;BME280;31437;58.350;13.828;2023-04-09T01:16:21;101171.81;;;-0.83;100.00
45525;BME280;31437;58.350;13.828;2023-04-09T01:21:18;101175.22;;;-0.86;100.00
45525;BME280;31437;58.350;13.828;2023-04-09T01:26:37;101179.47;;;-0.93;100.00
45525;BME280;31437;58.350;13.828;2023-04-09T01:29:01;101178.53;;;-0.98;100.00
45525;BME280;31437;58.350;13.828;2023-04-09T01:31:27;101177.63;;;-1.04;100.00
45525;BME280;31437;58.350;13.828;2023-04-09T01:33:54;101174.97;;;-1.12;100.00
45525;BME280;31437;58.350;13.828;2023-04-09T01:36:20;101177.50;;;-1.18;100.00
45525;BME280;31437;58.350;13.828;2023-04-09T01:38:46;101168.88;;;-1.22;100.00
45525;BME280;31437;58.350;13.828;2023-04-09T01:41:13;101169.75;;;-1.23;100.00
45525;BME280;31437;58.350;13.828;2023-04-09T01:43:39;101166.38;;;-1.16;100.00
45525;BME280;31437;58.350;13.828;2023-04-09T01:46:05;101173.25;;;-1.13;100.00
45525;BME280;31437;58.350;13.828;2023-04-09T01:48:31;101175.81;;;-1.16;100.00
45525;BME280;31437;58.350;13.828;2023-04-09T01:50:57;101172.34;;;-1.20;100.00
45525;BME280;31437;58.350;13.828;2023-04-09T01:53:23;101175.72;;;-1.24;100.00
45525;BME280;31437;58.350;13.828;2023-04-09T01:55:48;101169.66;;;-1.30;100.00
45525;BME280;31437;58.350;13.828;2023-04-09T01:58:13;101170.44;;;-1.36;100.00
45525;BME280;31437;58.350;13.828;2023-04-09T02:00:39;101170.38;;;-1.45;100.00
45525;BME280;31437;58.350;13.828;2023-04-09T02:05:54;101164.22;;;-1.58;100.00
45525;BME280;31437;58.350;13.828;2023-04-09T02:08:20;101169.28;;;-1.66;100.00
45525;BME280;31437;58.350;13.828;2023-04-09T02:10:48;101170.09;;;-1.68;100.00
45525;BME280;31437;58.350;13.828;2023-04-09T02:13:17;101160.63;;;-1.71;100.00
45525;BME280;31437;58.350;13.828;2023-04-09T02:15:44;101172.66;;;-1.73;100.00
45525;BME280;31437;58.350;13.828;2023-04-09T02:18:23;101170.03;;;-1.76;100.00
45525;BME280;31437;58.350;13.828;2023-04-09T02:20:48;101165.75;;;-1.75;100.00
45525;BME280;31437;58.350;13.828;2023-04-09T02:23:15;101164.91;;;-1.73;100.00
45525;BME280;31437;58.350;13.828;2023-04-09T02:25:40;101164.91;;;-1.73;100.00
45525;BME280;31437;58.350;13.828;2023-04-09T02:28:05;101164.03;;;-1.76;100.00
45525;BME280;31437;58.350;13.828;2023-04-09T02:30:31;101163.13;;;-1.77;100.00
45525;BME280;31437;58.350;13.828;2023-04-09T02:32:56;101164.00;;;-1.78;100.00
45525;BME280;31437;58.350;13.828;2023-04-09T02:35:21;101155.38;;;-1.81;100.00
45525;BME280;31437;58.350;13.828;2023-04-09T02:37:46;101161.44;;;-1.78;100.00
45525;BME280;31437;58.350;13.828;2023-04-09T02:40:12;101160.56;;;-1.77;100.00
45525;BME280;31437;58.350;13.828;2023-04-09T02:42:37;101162.28;;;-1.77;100.00
45525;BME280;31437;58.350;13.828;2023-04-09T02:45:02;101156.28;;;-1.78;100.00
45525;BME280;31437;58.350;13.828;2023-04-09T02:47:28;101157.16;;;-1.76;100.00
45525;BME280;31437;58.350;13.828;2023-04-09T02:49:54;101158.03;;;-1.74;100.00
45525;BME280;31437;58.350;13.828;2023-04-09T02:52:19;101162.38;;;-1.70;100.00
45525;BME280;31437;58.350;13.828;2023-04-09T02:54:48;101159.00;;;-1.67;100.00
45525;BME280;31437;58.350;13.828;2023-04-09T02:57:13;101153.84;;;-1.66;100.00
45525;BME280;31437;58.350;13.828;2023-04-09T02:59:38;101160.69;;;-1.66;100.00
45525;BME280;31437;58.350;13.828;2023-04-09T03:02:04;101154.66;;;-1.68;100.00
45525;BME280;31437;58.350;13.828;2023-04-09T03:04:30;101152.97;;;-1.66;100.00
45525;BME280;31437;58.350;13.828;2023-04-09T03:06:55;101160.78;;;-1.62;100.00
45525;BME280;31437;58.350;13.828;2023-04-09T03:09:20;101157.38;;;-1.56;100.00
45525;BME280;31437;58.350;13.828;2023-04-09T03:11:45;101160.00;;;-1.51;100.00
45525;BME280;31437;58.350;13.828;2023-04-09T03:14:11;101154.06;;;-1.46;100.00
45525;BME280;31437;58.350;13.828;2023-04-09T03:16:36;101163.56;;;-1.40;100.00
45525;BME280;31437;58.350;13.828;2023-04-09T03:19:02;101156.69;;;-1.40;100.00
45525;BME280;31437;58.350;13.828;2023-04-09T03:21:27;101151.59;;;-1.38;100.00
45525;BME280;31437;58.350;13.828;2023-04-09T03:23:52;101148.19;;;-1.34;100.00
45525;BME280;31437;58.350;13.828;2023-04-09T03:26:17;101150.75;;;-1.32;100.00
45525;BME280;31437;58.350;13.828;2023-04-09T03:28:43;101155.94;;;-1.31;100.00
45525;BME280;31437;58.350;13.828;2023-04-09T03:31:08;101151.63;;;-1.32;100.00
45525;BME280;31437;58.350;13.828;2023-04-09T03:33:33;101148.19;;;-1.34;100.00
45525;BME280;31437;58.350;13.828;2023-04-09T03:35:59;101151.59;;;-1.38;100.00
45525;BME280;31437;58.350;13.828;2023-04-09T03:38:24;101155.88;;;-1.37;100.00
45525;BME280;31437;58.350;13.828;2023-04-09T03:40:50;101143.88;;;-1.33;100.00
45525;BME280;31437;58.350;13.828;2023-04-09T03:43:15;101154.19;;;-1.33;100.00
45525;BME280;31437;58.350;13.828;2023-04-09T03:45:40;101142.13;;;-1.39;100.00
45525;BME280;31437;58.350;13.828;2023-04-09T03:48:05;101148.09;;;-1.42;100.00
45525;BME280;31437;58.350;13.828;2023-04-09T03:50:31;101147.19;;;-1.47;100.00
45525;BME280;31437;58.350;13.828;2023-04-09T03:52:56;101144.56;;;-1.51;100.00
45525;BME280;31437;58.350;13.828;2023-04-09T03:55:22;101142.78;;;-1.57;100.00
45525;BME280;31437;58.350;13.828;2023-04-09T03:57:47;101141.91;;;-1.61;100.00
45525;BME280;31437;58.350;13.828;2023-04-09T04:00:12;101144.44;;;-1.62;100.00
45525;BME280;31437;58.350;13.828;2023-04-09T04:02:38;101143.59;;;-1.63;100.00
45525;BME280;31437;58.350;13.828;2023-04-09T04:05:03;101145.38;;;-1.57;100.00
45525;BME280;31437;58.350;13.828;2023-04-09T04:07:28;101145.41;;;-1.55;100.00
45525;BME280;31437;58.350;13.828;2023-04-09T04:09:54;101149.72;;;-1.53;100.00
45525;BME280;31437;58.350;13.828;2023-04-09T04:12:19;101146.28;;;-1.52;100.00
45525;BME280;31437;58.350;13.828;2023-04-09T04:14:44;101147.13;;;-1.51;100.00
45525;BME280;31437;58.350;13.828;2023-04-09T04:17:10;101148.81;;;-1.55;100.00
45525;BME280;31437;58.350;13.828;2023-04-09T04:19:35;101146.22;;;-1.56;100.00
45525;BME280;31437;58.350;13.828;2023-04-09T04:22:01;101153.13;;;-1.54;100.00
45525;BME280;31437;58.350;13.828;2023-04-09T04:24:26;101155.72;;;-1.51;100.00
45525;BME280;31437;58.350;13.828;2023-04-09T04:26:51;101148.84;;;-1.50;100.00
45525;BME280;31437;58.350;13.828;2023-04-09T04:29:16;101149.75;;;-1.48;100.00
45525;BME280;31437;58.350;13.828;2023-04-09T04:31:42;101151.47;;;-1.49;100.00
45525;BME280;31437;58.350;13.828;2023-04-09T04:34:07;101154.03;;;-1.47;100.00
45525;BME280;31437;58.350;13.828;2023-04-09T04:36:32;101153.22;;;-1.43;100.00
45525;BME280;31437;58.350;13.828;2023-04-09T04:38:58;101151.56;;;-1.37;100.00
45525;BME280;31437;58.350;13.828;2023-04-09T04:41:23;101154.19;;;-1.33;100.00
45525;BME280;31437;58.350;13.828;2023-04-09T04:43:48;101162.81;;;-1.27;100.00
45525;BME280;31437;58.350;13.828;2023-04-09T04:46:14;101161.16;;;-1.22;100.00
45525;BME280;31437;58.350;13.828;2023-04-09T04:48:39;101156.94;;;-1.17;100.00
45525;BME280;31437;58.350;13.828;2023-04-09T04:51:04;101158.72;;;-1.08;100.00
45525;BME280;31437;58.350;13.828;2023-04-09T04:53:30;101157.97;;;-0.95;100.00
45525;BME280;31437;58.350;13.828;2023-04-09T04:55:55;101148.63;;;-0.80;100.00
45525;BME280;31437;58.350;13.828;2023-04-09T04:58:20;101162.50;;;-0.67;100.00
45525;BME280;31437;58.350;13.828;2023-04-09T05:00:49;101153.97;;;-0.54;100.00
45525;BME280;31437;58.350;13.828;2023-04-09T05:03:14;101150.63;;;-0.39;100.00
45525;BME280;31437;58.350;13.828;2023-04-09T05:05:39;101155.03;;;-0.26;100.00
45525;BME280;31437;58.350;13.828;2023-04-09T05:08:05;101149.94;;;-0.11;100.00
45525;BME280;31437;58.350;13.828;2023-04-09T05:10:31;101160.31;;;0.05;100.00
45525;BME280;31437;58.350;13.828;2023-04-09T05:12:56;101152.66;;;0.21;100.00
45525;BME280;31437;58.350;13.828;2023-04-09T05:15:23;101151.00;;;0.39;100.00
45525;BME280;31437;58.350;13.828;2023-04-09T05:17:48;101151.03;;;0.54;100.00
45525;BME280;31437;58.350;13.828;2023-04-09T05:20:14;101151.94;;;0.72;100.00
45525;BME280;31437;58.350;13.828;2023-04-09T05:22:39;101156.25;;;0.88;100.00
45525;BME280;31437;58.350;13.828;2023-04-09T05:25:05;101157.13;;;1.04;100.00
45525;BME280;31437;58.350;13.828;2023-04-09T05:27:31;101156.25;;;1.17;100.00
45525;BME280;31437;58.350;13.828;2023-04-09T05:29:57;101153.69;;;1.35;100.00
45525;BME280;31437;58.350;13.828;2023-04-09T05:32:22;101150.22;;;1.50;100.00
45525;BME280;31437;58.350;13.828;2023-04-09T05:34:47;101145.00;;;1.66;100.00
45525;BME280;31437;58.350;13.828;2023-04-09T05:37:12;101151.00;;;1.81;100.00
45525;BME280;31437;58.350;13.828;2023-04-09T05:39:38;101151.75;;;2.11;100.00
45525;BME280;31437;58.350;13.828;2023-04-09T05:42:03;101150.66;;;2.57;100.00
45525;BME280;31437;58.350;13.828;2023-04-09T05:44:29;101158.84;;;3.20;100.00
45525;BME280;31437;58.350;13.828;2023-04-09T05:46:55;101134.03;;;3.79;100.00
45525;BME280;31437;58.350;13.828;2023-04-09T05:49:21;101144.44;;;4.50;100.00
45525;BME280;31437;58.350;13.828;2023-04-09T05:51:46;101136.50;;;5.15;100.00
45525;BME280;31437;58.350;13.828;2023-04-09T05:54:12;101134.63;;;5.72;100.00
45525;BME280;31437;58.350;13.828;2023-04-09T05:56:37;101132.16;;;6.10;100.00
45525;BME280;31437;58.350;13.828;2023-04-09T05:59:02;101132.69;;;6.26;100.00
45525;BME280;31437;58.350;13.828;2023-04-09T06:01:28;101135.34;;;6.25;100.00
45525;BME280;31437;58.350;13.828;2023-04-09T06:03:53;101128.63;;;6.13;100.00
45525;BME280;31437;58.350;13.828;2023-04-09T06:06:19;101137.72;;;5.92;100.00
45525;BME280;31437;58.350;13.828;2023-04-09T06:08:44;101143.19;;;5.78;100.00
45525;BME280;31437;58.350;13.828;2023-04-09T06:11:10;101142.41;;;5.73;100.00
45525;BME280;31437;58.350;13.828;2023-04-09T06:13:36;101143.78;;;5.91;100.00
45525;BME280;31437;58.350;13.828;2023-04-09T06:16:05;101146.72;;;6.21;100.00
45525;BME280;31437;58.350;13.828;2023-04-09T06:18:30;101150.06;;;6.66;100.00
45525;BME280;31437;58.350;13.828;2023-04-09T06:21:06;101145.38;;;7.18;100.00
45525;BME280;31437;58.350;13.828;2023-04-09T06:23:32;101148.44;;;7.66;100.00
45525;BME280;31437;58.350;13.828;2023-04-09T06:25:57;101146.31;;;7.81;100.00
45525;BME280;31437;58.350;13.828;2023-04-09T06:28:23;101143.50;;;7.88;100.00
45525;BME280;31437;58.350;13.828;2023-04-09T06:30:48;101152.41;;;8.12;100.00
45525;BME280;31437;58.350;13.828;2023-04-09T06:33:13;101145.13;;;8.24;100.00
45525;BME280;31437;58.350;13.828;2023-04-09T06:35:38;101144.59;;;8.11;100.00
45525;BME280;31437;58.350;13.828;2023-04-09T06:38:04;101156.41;;;7.94;100.00
45525;BME280;31437;58.350;13.828;2023-04-09T06:40:29;101157.19;;;7.65;100.00
45525;BME280;31437;58.350;13.828;2023-04-09T06:42:54;101161.50;;;7.32;100.00
45525;BME280;31437;58.350;13.828;2023-04-09T06:45:20;101169.13;;;7.05;100.00
45525;BME280;31437;58.350;13.828;2023-04-09T06:47:45;101160.88;;;7.24;100.00
45525;BME280;31437;58.350;13.828;2023-04-09T06:50:10;101156.09;;;7.74;100.00
45525;BME280;31437;58.350;13.828;2023-04-09T06:52:36;101150.78;;;8.39;100.00
45525;BME280;31437;58.350;13.828;2023-04-09T06:55:01;101147.31;;;8.95;100.00
45525;BME280;31437;58.350;13.828;2023-04-09T06:57:26;101143.91;;;9.45;100.00
45525;BME280;31437;58.350;13.828;2023-04-09T06:59:51;101146.84;;;9.86;100.00
45525;BME280;31437;58.350;13.828;2023-04-09T07:02:20;101140.97;;;10.28;100.00
45525;BME280;31437;58.350;13.828;2023-04-09T07:04:48;101142.88;;;10.46;100.00
45525;BME280;31437;58.350;13.828;2023-04-09T07:07:14;101144.63;;;10.47;100.00
45525;BME280;31437;58.350;13.828;2023-04-09T07:09:39;101145.88;;;10.37;100.00
45525;BME280;31437;58.350;13.828;2023-04-09T07:12:05;101143.00;;;10.43;100.00
45525;BME280;31437;58.350;13.828;2023-04-09T07:14:30;101153.28;;;10.71;100.00
45525;BME280;31437;58.350;13.828;2023-04-09T07:16:55;101144.72;;;10.88;100.00
45525;BME280;31437;58.350;13.828;2023-04-09T07:19:21;101141.59;;;11.22;100.00
45525;BME280;31437;58.350;13.828;2023-04-09T07:21:46;101149.63;;;11.40;100.00
45525;BME280;31437;58.350;13.828;2023-04-09T07:24:11;101146.59;;;11.49;100.00
45525;BME280;31437;58.350;13.828;2023-04-09T07:26:36;101146.59;;;11.49;100.00
45525;BME280;31437;58.350;13.828;2023-04-09T07:29:02;101155.81;;;11.39;100.00
45525;BME280;31437;58.350;13.828;2023-04-09T07:31:28;101149.53;;;11.41;100.00
45525;BME280;31437;58.350;13.828;2023-04-09T07:33:54;101152.97;;;11.43;100.00
45525;BME280;31437;58.350;13.828;2023-04-09T07:36:19;101148.81;;;11.58;100.00
45525;BME280;31437;58.350;13.828;2023-04-09T07:38:44;101144.50;;;11.77;100.00
45525;BME280;31437;58.350;13.828;2023-04-09T07:41:10;101143.25;;;11.66;100.00
45525;BME280;31437;58.350;13.828;2023-04-09T07:43:35;101150.31;;;11.84;100.00
45525;BME280;31437;58.350;13.828;2023-04-09T07:46:01;101141.72;;;12.01;100.00
45525;BME280;31437;58.350;13.828;2023-04-09T07:48:26;101142.09;;;12.12;100.00
45525;BME280;31437;58.350;13.828;2023-04-09T07:50:52;101144.63;;;11.95;100.00
45525;BME280;31437;58.350;13.828;2023-04-09T07:53:17;101154.72;;;11.83;100.00
45525;BME280;31437;58.350;13.828;2023-04-09T07:55:42;101152.47;;;12.15;100.00
45525;BME280;31437;58.350;13.828;2023-04-09T07:58:08;101143.88;;;12.31;100.00
45525;BME280;31437;58.350;13.828;2023-04-09T08:00:33;101144.22;;;12.61;100.00
45525;BME280;31437;58.350;13.828;2023-04-09T08:02:58;101150.50;;;12.94;100.00
45525;BME280;31437;58.350;13.828;2023-04-09T08:05:23;101151.66;;;12.89;100.00
45525;BME280;31437;58.350;13.828;2023-04-09T08:07:49;101151.19;;;12.62;100.00
45525;BME280;31437;58.350;13.828;2023-04-09T08:10:15;101156.31;;;12.46;100.00
45525;BME280;31437;58.350;13.828;2023-04-09T08:12:41;101143.88;;;12.31;100.00
45525;BME280;31437;58.350;13.828;2023-04-09T08:15:07;101150.91;;;12.30;100.00
45525;BME280;31437;58.350;13.828;2023-04-09T08:17:32;101151.53;;;12.16;100.00
45525;BME280;31437;58.350;13.828;2023-04-09T08:19:58;101153.38;;;12.14;100.00
45525;BME280;31437;58.350;13.828;2023-04-09T08:22:24;101155.38;;;12.47;100.00
45525;BME280;31437;58.350;13.828;2023-04-09T08:24:52;101155.59;;;12.61;100.00
45525;BME280;31437;58.350;13.828;2023-04-09T08:27:18;101144.75;;;12.67;100.00
45525;BME280;31437;58.350;13.828;2023-04-09T08:29:43;101151.88;;;12.84;100.00
45525;BME280;31437;58.350;13.828;2023-04-09T08:32:08;101149.66;;;13.11;100.00
45525;BME280;31437;58.350;13.828;2023-04-09T08:34:34;101151.28;;;13.33;100.00
45525;BME280;31437;58.350;13.828;2023-04-09T08:36:59;101142.91;;;13.23;100.00
45525;BME280;31437;58.350;13.828;2023-04-09T08:39:24;101156.56;;;13.14;100.00
45525;BME280;31437;58.350;13.828;2023-04-09T08:41:50;101146.56;;;13.21;100.00
45525;BME280;31437;58.350;13.828;2023-04-09T08:44:16;101151.50;;;12.92;100.00
45525;BME280;31437;58.350;13.828;2023-04-09T08:46:41;101146.59;;;12.84;100.00
45525;BME280;31437;58.350;13.828;2023-04-09T08:49:07;101140.97;;;12.92;100.00
45525;BME280;31437;58.350;13.828;2023-04-09T08:51:33;101147.25;;;13.07;100.00
45525;BME280;31437;58.350;13.828;2023-04-09T08:53:58;101145.66;;;13.22;100.00
45525;BME280;31437;58.350;13.828;2023-04-09T08:56:24;101144.53;;;13.08;100.00
45525;BME280;31437;58.350;13.828;2023-04-09T08:58:50;101142.16;;;13.04;100.00
45525;BME280;31437;58.350;13.828;2023-04-09T09:03:52;101150.81;;;12.88;100.00
45525;BME280;31437;58.350;13.828;2023-04-09T09:06:21;101143.72;;;12.71;100.00
45525;BME280;31437;58.350;13.828;2023-04-09T09:09:04;101139.88;;;12.41;100.00
45525;BME280;31437;58.350;13.828;2023-04-09T09:11:30;101133.56;;;12.45;100.00
45525;BME280;31437;58.350;13.828;2023-04-09T09:14:17;101139.47;;;12.31;100.00
45525;BME280;31437;58.350;13.828;2023-04-09T09:16:42;101134.69;;;12.01;100.00
45525;BME280;31437;58.350;13.828;2023-04-09T09:19:08;101135.34;;;12.07;100.00
45525;BME280;31437;58.350;13.828;2023-04-09T09:21:34;101133.78;;;12.21;100.00
45525;BME280;31437;58.350;13.828;2023-04-09T09:24:01;101132.91;;;12.40;100.00
45525;BME280;31437;58.350;13.828;2023-04-09T09:26:27;101131.91;;;12.61;100.00
45525;BME280;31437;58.350;13.828;2023-04-09T09:28:53;101131.94;;;12.42;100.00
45525;BME280;31437;58.350;13.828;2023-04-09T09:31:19;101129.50;;;12.38;100.00
45525;BME280;31437;58.350;13.828;2023-04-09T09:33:45;101129.66;;;12.16;100.00
45525;BME280;31437;58.350;13.828;2023-04-09T09:36:11;101135.81;;;11.96;100.00
45525;BME280;31437;58.350;13.828;2023-04-09T09:38:53;101133.13;;;11.97;100.00
45525;BME280;31437;58.350;13.828;2023-04-09T09:41:18;101128.63;;;11.79;100.00
45525;BME280;31437;58.350;13.828;2023-04-09T09:43:44;101134.31;;;11.49;100.00
45525;BME280;31437;58.350;13.828;2023-04-09T09:46:10;101135.41;;;11.64;100.00
45525;BME280;31437;58.350;13.828;2023-04-09T09:48:36;101132.47;;;11.72;100.00
45525;BME280;31437;58.350;13.828;2023-04-09T09:51:07;101134.38;;;11.68;100.00
45525;BME280;31437;58.350;13.828;2023-04-09T09:53:33;101130.25;;;11.63;100.00
45525;BME280;31437;58.350;13.828;2023-04-09T09:56:00;101130.81;;;11.69;100.00
45525;BME280;31437;58.350;13.828;2023-04-09T09:58:27;101122.22;;;11.86;100.00
45525;BME280;31437;58.350;13.828;2023-04-09T10:00:55;101126.28;;;11.93;100.00
45525;BME280;31437;58.350;13.828;2023-04-09T10:03:24;101128.91;;;11.73;100.00
45525;BME280;31437;58.350;13.828;2023-04-09T10:05:49;101128.38;;;11.65;100.00
45525;BME280;31437;58.350;13.828;2023-04-09T10:08:15;101125.88;;;11.62;100.00
45525;BME280;31437;58.350;13.828;2023-04-09T10:10:41;101120.16;;;11.72;100.00
45525;BME280;31437;58.350;13.828;2023-04-09T10:13:15;101119.25;;;11.94;100.00
45525;BME280;31437;58.350;13.828;2023-04-09T10:15:42;101122.69;;;12.15;100.00
45525;BME280;31437;58.350;13.828;2023-04-09T10:18:08;101118.56;;;12.09;100.00
45525;BME280;31437;58.350;13.828;2023-04-09T10:20:51;101117.81;;;11.87;100.00
45525;BME280;31437;58.350;13.828;2023-04-09T10:23:42;101119.97;;;11.97;100.00
45525;BME280;31437;58.350;13.828;2023-04-09T10:26:07;101109.03;;;12.25;100.00
45525;BME280;31437;58.350;13.828;2023-04-09T10:28:32;101115.78;;;12.12;99.22
45525;BME280;31437;58.350;13.828;2023-04-09T10:30:58;101115.28;;;12.23;99.35
45525;BME280;31437;58.350;13.828;2023-04-09T10:33:24;101122.66;;;11.75;96.23
45525;BME280;31437;58.350;13.828;2023-04-09T10:35:51;101109.00;;;11.67;96.01
45525;BME280;31437;58.350;13.828;2023-04-09T10:38:16;101117.69;;;11.90;96.93
45525;BME280;31437;58.350;13.828;2023-04-09T10:40:56;101106.41;;;12.07;95.74
45525;BME280;31437;58.350;13.828;2023-04-09T10:43:22;101104.34;;;11.94;94.23
45525;BME280;31437;58.350;13.828;2023-04-09T10:45:48;101098.56;;;12.05;94.31
45525;BME280;31437;58.350;13.828;2023-04-09T10:48:17;101108.31;;;12.22;94.55
45525;BME280;31437;58.350;13.828;2023-04-09T10:50:43;101105.25;;;12.31;94.71
45525;BME280;31437;58.350;13.828;2023-04-09T10:53:20;101101.34;;;12.40;94.12
45525;BME280;31437;58.350;13.828;2023-04-09T10:55:48;101099.75;;;12.55;95.50
45525;BME280;31437;58.350;13.828;2023-04-09T10:58:17;101106.66;;;12.57;94.75
45525;BME280;31437;58.350;13.828;2023-04-09T11:00:43;101100.41;;;12.60;94.30
45525;BME280;31437;58.350;13.828;2023-04-09T11:03:22;101102.50;;;12.53;93.32
45525;BME280;31437;58.350;13.828;2023-04-09T11:06:01;101110.03;;;12.23;91.74
45525;BME280;31437;58.350;13.828;2023-04-09T11:08:28;101105.63;;;12.04;91.22
45525;BME280;31437;58.350;13.828;2023-04-09T11:10:54;101101.50;;;11.78;89.93
45525;BME280;31437;58.350;13.828;2023-04-09T11:13:22;101101.59;;;11.77;90.06
45525;BME280;31437;58.350;13.828;2023-04-09T11:15:48;101104.22;;;11.77;90.39
45525;BME280;31437;58.350;13.828;2023-04-09T11:18:14;101102.22;;;11.62;88.83
45525;BME280;31437;58.350;13.828;2023-04-09T11:20:39;101104.00;;;11.61;88.84
45525;BME280;31437;58.350;13.828;2023-04-09T11:23:05;101112.88;;;11.58;88.51
45525;BME280;31437;58.350;13.828;2023-04-09T11:25:31;101107.72;;;11.57;88.65
45525;BME280;31437;58.350;13.828;2023-04-09T11:27:56;101104.22;;;11.56;88.58
45525;BME280;31437;58.350;13.828;2023-04-09T11:30:22;101109.50;;;11.56;88.64
45525;BME280;31437;58.350;13.828;2023-04-09T11:32:48;101102.38;;;11.58;87.89
45525;BME280;31437;58.350;13.828;2023-04-09T11:35:14;101100.41;;;11.64;87.85
45525;BME280;31437;58.350;13.828;2023-04-09T11:37:41;101105.53;;;11.46;86.56
45525;BME280;31437;58.350;13.828;2023-04-09T11:40:07;101104.16;;;11.37;86.18
45525;BME280;31437;58.350;13.828;2023-04-09T11:42:33;101100.81;;;11.34;86.18
45525;BME280;31437;58.350;13.828;2023-04-09T11:44:58;101093.66;;;11.17;84.40
45525;BME280;31437;58.350;13.828;2023-04-09T11:47:24;101104.22;;;11.16;84.59
45525;BME280;31437;58.350;13.828;2023-04-09T11:49:50;101105.75;;;11.21;84.45
45525;BME280;31437;58.350;13.828;2023-04-09T11:52:15;101087.50;;;11.18;84.13
45525;BME280;31437;58.350;13.828;2023-04-09T11:54:41;101103.84;;;11.25;84.20
45525;BME280;31437;58.350;13.828;2023-04-09T11:57:06;101093.78;;;11.34;84.17
45525;BME280;31437;58.350;13.828;2023-04-09T11:59:32;101100.81;;;11.34;83.45
45525;BME280;31437;58.350;13.828;2023-04-09T12:01:57;101090.84;;;11.22;82.02
45525;BME280;31437;58.350;13.828;2023-04-09T12:04:22;101092.88;;;11.15;81.53
45525;BME280;31437;58.350;13.828;2023-04-09T12:06:48;101091.69;;;11.22;82.14
45525;BME280;31437;58.350;13.828;2023-04-09T12:09:13;101090.84;;;11.22;81.44
45525;BME280;31437;58.350;13.828;2023-04-09T12:11:42;101087.00;;;11.08;80.25
45525;BME280;31437;58.350;13.828;2023-04-09T12:14:11;101086.09;;;11.09;79.92
45525;BME280;31437;58.350;13.828;2023-04-09T12:16:36;101086.69;;;11.16;80.21
45525;BME280;31437;58.350;13.828;2023-04-09T12:19:02;101083.69;;;11.25;80.76
45525;BME280;31437;58.350;13.828;2023-04-09T12:21:47;101083.50;;;11.30;80.77
45525;BME280;31437;58.350;13.828;2023-04-09T12:24:13;101082.28;;;11.37;80.79
45525;BME280;31437;58.350;13.828;2023-04-09T12:26:38;101079.28;;;11.26;79.96
45525;BME280;31437;58.350;13.828;2023-04-09T12:29:04;101076.38;;;11.11;79.65
45525;BME280;31437;58.350;13.828;2023-04-09T12:31:29;101075.53;;;11.11;79.61
45525;BME280;31437;58.350;13.828;2023-04-09T12:33:54;101074.84;;;11.06;79.30
45525;BME280;31437;58.350;13.828;2023-04-09T12:36:20;101075.06;;;11.01;79.09
45525;BME280;31437;58.350;13.828;2023-04-09T12:38:45;101075.91;;;11.02;78.68
45525;BME280;31437;58.350;13.828;2023-04-09T12:41:11;101047.72;;;10.85;79.14
45525;BME280;31437;58.350;13.828;2023-04-09T12:43:37;101069.88;;;11.00;78.04